Alakanuk, AK (99554)

1:57 AM AKST on February 13, 2016 (GMT -0900)
Emmonak | | Change Station
CLOSE
Current Station
Airport
Location: Emmonak,
Elevation: 13 ft
Nearby Weather Stations

Elev 13 ft 62.79 °N, 164.49 °W | Updated 1 hour ago

Clear
Clear
0 °F
Feels Like -15 °F
N
8
Wind Variable Wind from North

Today
High -- | Low -- °F
--% Chance of Precip.
Yesterday
High -- | Low -- °F
Precip. -- in
Pressure 29.43 in
Visibility 10.0 miles
Clouds Clear
Windchill -15 °F
Dew Point -2 °F
Humidity 92%
Rainfall 0.00 in
Snow Depth Not available.
9:53 AM 6:32 PM
Waxing Crescent, 29% visible
METAR PAEM 130915Z AUTO 35007KT 10SM CLR M18/M19 A2943 RMK VIA PHONE
Pressure 29.43 in
Visibility 10.0 miles
Clouds Clear
Windchill -15 °F
Dew Point -2 °F
Humidity 92%
Rainfall 0.00 in
Snow Depth Not available.
9:53 AM 6:32 PM
Waxing Crescent, 29% visible
METAR PAEM 130915Z AUTO 35007KT 10SM CLR M18/M19 A2943 RMK VIA PHONE

10-Day Weather Forecast

Almanac

Astronomy

Feb. 13, 2016 Rise Set
Actual Time
Civil Twilight
Nautical Twilight
Astronomical Twilight
Moon
Length of Visible Light
Length of Day
Tomorrow will be .
, % of the Moon is Illuminated

Today's Extremes

State Highs State Lows

Community

WunderPhotos

Upload Photos

1,892,537 photos uploaded!

WunderBlog® & News

Nearby

Air Quality

  Air Quality AQ Index Pollutant
Not available.

Snow Depth

Station Depth Elevation

Earthquake Activity

City Distance Mag. Time & Date
Minimum magnitude displayed is 2.5.

Coastal Water Temperatures

Place Temperature

Stations

Nearby Weather Stations

Station Location Temp. Windchill Dew Point Humidity Wind Precip. Elev Updated Type
                   

Watches & Warnings

There are currently no watches in effect.